createdAt,value
2022-08-09T00:00:46.000Z,24.4
2022-08-09T00:01:55.000Z,24.4
2022-08-09T00:03:04.000Z,24.4
2022-08-09T00:04:13.000Z,24.4
2022-08-09T00:05:23.000Z,24.4
2022-08-09T00:06:34.000Z,24.4
2022-08-09T00:07:44.000Z,24.3
2022-08-09T00:08:54.000Z,24.3
2022-08-09T00:10:04.000Z,24.3
2022-08-09T00:11:14.000Z,24.3
2022-08-09T00:12:24.000Z,24.3
2022-08-09T00:13:34.000Z,24.3
2022-08-09T00:14:44.000Z,24.3
2022-08-09T00:15:54.000Z,24.3
2022-08-09T00:17:05.000Z,24.3
2022-08-09T00:18:15.000Z,24.3
2022-08-09T00:19:24.000Z,24.3
2022-08-09T00:20:34.000Z,24.2
2022-08-09T00:21:44.000Z,24.2
2022-08-09T00:22:54.000Z,24.2
2022-08-09T00:24:04.000Z,24.2
2022-08-09T00:25:14.000Z,24.2
2022-08-09T00:26:25.000Z,24.2
2022-08-09T00:27:35.000Z,24.2
2022-08-09T00:28:44.000Z,24.2
2022-08-09T00:29:54.000Z,24.2
2022-08-09T00:31:03.000Z,24.2
2022-08-09T00:32:12.000Z,24.2
2022-08-09T00:33:22.000Z,24.2
2022-08-09T00:34:32.000Z,24.2
2022-08-09T00:35:42.000Z,24.1
2022-08-09T00:36:51.000Z,24.1
2022-08-09T00:38:01.000Z,24.1
2022-08-09T00:39:11.000Z,24.1
2022-08-09T00:40:21.000Z,24.1
2022-08-09T00:41:31.000Z,24.1
2022-08-09T00:42:41.000Z,24.1
2022-08-09T00:43:51.000Z,24.1
2022-08-09T00:45:02.000Z,24.1
2022-08-09T00:46:12.000Z,24.1
2022-08-09T00:47:22.000Z,24.1
2022-08-09T00:48:32.000Z,24.1
2022-08-09T00:49:42.000Z,24.1
2022-08-09T00:50:52.000Z,24.1
2022-08-09T00:52:01.000Z,24
2022-08-09T00:53:11.000Z,24
2022-08-09T00:54:21.000Z,24
2022-08-09T00:55:32.000Z,24
2022-08-09T00:56:42.000Z,24
2022-08-09T00:57:52.000Z,24
2022-08-09T00:59:02.000Z,24
2022-08-09T01:00:11.000Z,24
2022-08-09T01:01:21.000Z,24
2022-08-09T01:02:31.000Z,24
2022-08-09T01:03:40.000Z,24
2022-08-09T01:04:51.000Z,24
2022-08-09T01:06:00.000Z,24
2022-08-09T01:07:10.000Z,24
2022-08-09T01:08:20.000Z,23.9
2022-08-09T01:09:30.000Z,23.9
2022-08-09T01:10:40.000Z,23.9
2022-08-09T01:11:50.000Z,24
2022-08-09T01:13:00.000Z,23.9
2022-08-09T01:14:11.000Z,23.9
2022-08-09T01:15:21.000Z,23.9
2022-08-09T01:16:31.000Z,23.9
2022-08-09T01:17:41.000Z,23.9
2022-08-09T01:18:51.000Z,23.9
2022-08-09T01:20:01.000Z,23.9
2022-08-09T01:21:10.000Z,23.9
2022-08-09T01:22:20.000Z,23.9
2022-08-09T01:23:31.000Z,23.9
2022-08-09T01:24:41.000Z,23.9
2022-08-09T01:25:51.000Z,23.9
2022-08-09T01:27:01.000Z,23.8
2022-08-09T01:28:11.000Z,23.9
2022-08-09T01:29:20.000Z,23.8
2022-08-09T01:31:39.000Z,23.8
2022-08-09T01:32:50.000Z,23.8
2022-08-09T01:33:59.000Z,23.8
2022-08-09T01:35:09.000Z,23.8
2022-08-09T01:36:19.000Z,23.8
2022-08-09T01:37:29.000Z,23.8
2022-08-09T01:38:38.000Z,23.8
2022-08-09T01:39:48.000Z,23.8
2022-08-09T01:40:58.000Z,23.8
2022-08-09T01:42:09.000Z,23.8
2022-08-09T01:43:19.000Z,23.8
2022-08-09T01:44:29.000Z,23.8
2022-08-09T01:45:39.000Z,23.8
2022-08-09T01:46:49.000Z,23.8
2022-08-09T01:47:59.000Z,23.7
2022-08-09T01:49:09.000Z,23.7
2022-08-09T01:50:19.000Z,23.7
2022-08-09T01:51:29.000Z,23.7
2022-08-09T01:52:40.000Z,23.7
2022-08-09T01:54:59.000Z,23.7
2022-08-09T01:56:09.000Z,23.7
2022-08-09T01:57:19.000Z,23.7
2022-08-09T01:58:29.000Z,23.7
2022-08-09T01:59:38.000Z,23.7
2022-08-09T02:00:47.000Z,23.7
2022-08-09T02:01:57.000Z,23.7
2022-08-09T02:03:06.000Z,23.7
2022-08-09T02:04:16.000Z,23.6
2022-08-09T02:05:26.000Z,23.7
2022-08-09T02:06:36.000Z,23.7
2022-08-09T02:07:46.000Z,23.6
2022-08-09T02:08:56.000Z,23.6
2022-08-09T02:10:06.000Z,23.6
2022-08-09T02:11:17.000Z,23.6
2022-08-09T02:12:27.000Z,23.6
2022-08-09T02:13:37.000Z,23.6
2022-08-09T02:14:47.000Z,23.6
2022-08-09T02:15:57.000Z,23.6
2022-08-09T02:17:07.000Z,23.6
2022-08-09T02:18:17.000Z,23.6
2022-08-09T02:19:27.000Z,23.6
2022-08-09T02:20:36.000Z,23.6
2022-08-09T02:21:47.000Z,23.6
2022-08-09T02:22:57.000Z,23.6
2022-08-09T02:24:07.000Z,23.6
2022-08-09T02:25:17.000Z,23.6
2022-08-09T02:26:26.000Z,23.6
2022-08-09T02:27:35.000Z,23.6
2022-08-09T02:28:44.000Z,23.6
2022-08-09T02:29:53.000Z,23.5
2022-08-09T02:31:04.000Z,23.5
2022-08-09T02:32:14.000Z,23.5
2022-08-09T02:33:24.000Z,23.5
2022-08-09T02:34:34.000Z,23.5
2022-08-09T02:35:44.000Z,23.5
2022-08-09T02:36:54.000Z,23.5
2022-08-09T02:38:04.000Z,23.5
2022-08-09T02:39:14.000Z,23.5
2022-08-09T02:40:25.000Z,23.5
2022-08-09T02:41:35.000Z,23.5
2022-08-09T02:42:45.000Z,23.5
2022-08-09T02:43:55.000Z,23.5
2022-08-09T02:45:05.000Z,23.5
2022-08-09T02:46:15.000Z,23.5
2022-08-09T02:47:25.000Z,23.5
2022-08-09T02:48:35.000Z,23.5
2022-08-09T02:49:44.000Z,23.5
2022-08-09T02:53:15.000Z,23.4
2022-08-09T02:54:25.000Z,23.4
2022-08-09T02:55:34.000Z,23.4
2022-08-09T02:56:43.000Z,23.4
2022-08-09T02:57:52.000Z,23.4
2022-08-09T02:59:01.000Z,23.4
2022-08-09T03:00:12.000Z,23.4
2022-08-09T03:01:22.000Z,23.4
2022-08-09T03:02:32.000Z,23.4
2022-08-09T03:03:42.000Z,23.4
2022-08-09T03:04:52.000Z,23.4
2022-08-09T03:06:02.000Z,23.4
2022-08-09T03:07:12.000Z,23.4
2022-08-09T03:08:22.000Z,23.4
2022-08-09T03:09:33.000Z,23.4
2022-08-09T03:10:43.000Z,23.4
2022-08-09T03:11:53.000Z,23.4
2022-08-09T03:13:03.000Z,23.3
2022-08-09T03:14:12.000Z,23.3
2022-08-09T03:15:22.000Z,23.3
2022-08-09T03:16:32.000Z,23.3
2022-08-09T03:17:42.000Z,23.3
2022-08-09T03:18:52.000Z,23.3
2022-08-09T03:20:03.000Z,23.3
2022-08-09T03:21:13.000Z,23.3
2022-08-09T03:22:23.000Z,23.3
2022-08-09T03:23:32.000Z,23.3
2022-08-09T03:24:41.000Z,23.3
2022-08-09T03:25:50.000Z,23.3
2022-08-09T03:26:59.000Z,23.3
2022-08-09T03:28:09.000Z,23.3
2022-08-09T03:29:20.000Z,23.3
2022-08-09T03:30:30.000Z,23.3
2022-08-09T03:31:40.000Z,23.3
2022-08-09T03:34:00.000Z,23.3
2022-08-09T03:35:10.000Z,23.4
2022-08-09T03:36:20.000Z,23.4
2022-08-09T03:37:30.000Z,23.4
2022-08-09T03:38:41.000Z,23.4
2022-08-09T03:39:51.000Z,23.4
2022-08-09T03:41:01.000Z,23.4
2022-08-09T03:42:11.000Z,23.4
2022-08-09T03:43:21.000Z,23.4
2022-08-09T03:44:31.000Z,23.5
2022-08-09T03:45:41.000Z,23.5
2022-08-09T03:46:50.000Z,23.5
2022-08-09T03:48:00.000Z,23.5
2022-08-09T03:49:11.000Z,23.5
2022-08-09T03:50:21.000Z,23.5
2022-08-09T03:51:30.000Z,23.5
2022-08-09T03:52:39.000Z,23.5
2022-08-09T03:53:48.000Z,23.5
2022-08-09T03:54:57.000Z,23.5
2022-08-09T03:56:07.000Z,23.5
2022-08-09T03:57:17.000Z,23.5
2022-08-09T03:58:28.000Z,23.5
2022-08-09T03:59:38.000Z,23.5
2022-08-09T04:00:48.000Z,23.5
2022-08-09T04:01:58.000Z,23.5
2022-08-09T04:03:08.000Z,23.5
2022-08-09T04:04:18.000Z,23.5
2022-08-09T04:05:28.000Z,23.6
2022-08-09T04:06:38.000Z,23.6
2022-08-09T04:07:49.000Z,23.6
2022-08-09T04:08:59.000Z,23.6
2022-08-09T04:10:08.000Z,23.6
2022-08-09T04:11:18.000Z,23.6
2022-08-09T04:12:28.000Z,23.6
2022-08-09T04:13:38.000Z,23.6
2022-08-09T04:14:48.000Z,23.6
2022-08-09T04:15:58.000Z,23.6
2022-08-09T04:17:08.000Z,23.6
2022-08-09T04:18:19.000Z,23.6
2022-08-09T04:19:29.000Z,23.6
2022-08-09T04:20:39.000Z,23.6
2022-08-09T04:21:48.000Z,23.6
2022-08-09T04:22:57.000Z,23.6
2022-08-09T04:24:07.000Z,23.6
2022-08-09T04:25:17.000Z,23.6
2022-08-09T04:26:27.000Z,23.6
2022-08-09T04:27:38.000Z,23.7
2022-08-09T04:29:58.000Z,23.7
2022-08-09T04:31:08.000Z,23.7
2022-08-09T04:32:18.000Z,23.7
2022-08-09T04:33:27.000Z,23.7
2022-08-09T04:34:37.000Z,23.7
2022-08-09T04:35:47.000Z,23.7
2022-08-09T04:36:58.000Z,23.7
2022-08-09T04:38:08.000Z,23.7
2022-08-09T04:39:18.000Z,23.7
2022-08-09T04:40:28.000Z,23.7
2022-08-09T04:41:38.000Z,23.7
2022-08-09T04:42:48.000Z,23.7
2022-08-09T04:43:58.000Z,23.7
2022-08-09T04:45:08.000Z,23.7
2022-08-09T04:46:18.000Z,23.7
2022-08-09T04:47:28.000Z,23.7
2022-08-09T04:48:37.000Z,23.7
2022-08-09T04:49:47.000Z,23.8
2022-08-09T04:50:56.000Z,23.7
2022-08-09T04:52:05.000Z,23.7
2022-08-09T04:53:15.000Z,23.8
2022-08-09T04:54:25.000Z,23.8
2022-08-09T04:55:35.000Z,23.8
2022-08-09T04:56:46.000Z,23.8
2022-08-09T04:57:56.000Z,23.8
2022-08-09T04:59:06.000Z,23.8
2022-08-09T05:00:16.000Z,23.8
2022-08-09T05:01:26.000Z,23.8
2022-08-09T05:02:36.000Z,23.8
2022-08-09T05:03:46.000Z,23.8
2022-08-09T05:04:56.000Z,23.8
2022-08-09T05:06:06.000Z,23.8
2022-08-09T05:07:16.000Z,23.8
2022-08-09T05:08:26.000Z,23.8
2022-08-09T05:09:36.000Z,23.8
2022-08-09T05:10:46.000Z,23.8
2022-08-09T05:11:56.000Z,23.8
2022-08-09T05:13:06.000Z,23.8
2022-08-09T05:14:16.000Z,23.8
2022-08-09T05:15:25.000Z,23.8
2022-08-09T05:16:35.000Z,23.8
2022-08-09T05:17:45.000Z,23.7
2022-08-09T05:18:54.000Z,23.8
2022-08-09T05:20:03.000Z,23.7
2022-08-09T05:21:13.000Z,23.7
2022-08-09T05:22:23.000Z,23.7
2022-08-09T05:23:33.000Z,23.7
2022-08-09T05:24:43.000Z,23.7
2022-08-09T05:25:54.000Z,23.7
2022-08-09T05:27:04.000Z,23.7
2022-08-09T05:28:14.000Z,23.7
2022-08-09T05:29:24.000Z,23.7
2022-08-09T05:30:34.000Z,23.7
2022-08-09T05:32:54.000Z,23.7
2022-08-09T05:34:04.000Z,23.7
2022-08-09T05:35:13.000Z,23.7
2022-08-09T05:36:24.000Z,23.7
2022-08-09T05:37:34.000Z,23.7
2022-08-09T05:38:44.000Z,23.7
2022-08-09T05:39:54.000Z,23.7
2022-08-09T05:41:04.000Z,23.7
2022-08-09T05:42:14.000Z,23.7
2022-08-09T05:43:24.800Z,23.8
2022-08-09T05:44:34.000Z,23.8
2022-08-09T05:45:44.000Z,23.8
2022-08-09T05:46:53.000Z,23.8
2022-08-09T05:48:03.000Z,23.7
2022-08-09T05:49:13.000Z,23.7
2022-08-09T05:50:23.000Z,23.8
2022-08-09T05:51:33.000Z,23.8
2022-08-09T05:52:43.000Z,23.8
2022-08-09T05:53:53.000Z,23.8
2022-08-09T05:55:04.000Z,23.8
2022-08-09T05:56:14.000Z,23.8
2022-08-09T05:57:24.000Z,23.7
2022-08-09T05:58:34.000Z,23.8
2022-08-09T05:59:44.000Z,23.7
2022-08-09T06:00:54.000Z,23.8
2022-08-09T06:02:03.000Z,23.8
2022-08-09T06:03:13.000Z,23.7
2022-08-09T06:04:23.000Z,23.8
2022-08-09T06:05:34.000Z,23.8
2022-08-09T06:06:44.000Z,23.7
2022-08-09T06:07:54.000Z,23.7
2022-08-09T06:09:04.000Z,23.7
2022-08-09T06:10:14.000Z,23.7
2022-08-09T06:11:23.000Z,23.7
2022-08-09T06:12:32.000Z,23.7
2022-08-09T06:13:42.000Z,23.8
2022-08-09T06:14:53.000Z,23.7
2022-08-09T06:16:03.000Z,23.7
2022-08-09T06:17:13.000Z,23.7
2022-08-09T06:18:23.000Z,23.7
2022-08-09T06:19:33.000Z,23.7
2022-08-09T06:20:43.000Z,23.7
2022-08-09T06:21:53.000Z,23.8
2022-08-09T06:23:03.000Z,23.7
2022-08-09T06:24:13.000Z,23.7
2022-08-09T06:25:24.000Z,23.7
2022-08-09T06:26:34.000Z,23.7
2022-08-09T06:27:44.000Z,23.7
2022-08-09T06:28:53.000Z,23.7
2022-08-09T06:30:03.000Z,23.7
2022-08-09T06:31:13.000Z,23.7
2022-08-09T06:32:23.000Z,23.7
2022-08-09T06:33:33.000Z,23.7
2022-08-09T06:34:44.000Z,23.7
2022-08-09T06:35:53.000Z,23.7
2022-08-09T06:37:02.000Z,23.7
2022-08-09T06:38:11.000Z,23.7
2022-08-09T06:39:20.000Z,23.7
2022-08-09T06:40:29.000Z,23.7
2022-08-09T06:41:38.000Z,23.7
2022-08-09T06:42:48.000Z,23.8
2022-08-09T06:43:59.000Z,23.8
2022-08-09T06:45:09.000Z,23.7
2022-08-09T06:46:19.000Z,23.8
2022-08-09T06:47:29.000Z,23.8
2022-08-09T06:49:49.000Z,23.8
2022-08-09T06:50:59.000Z,23.8
2022-08-09T06:52:09.000Z,23.8
2022-08-09T06:53:20.000Z,23.8
2022-08-09T06:54:30.000Z,23.8
2022-08-09T06:55:40.000Z,23.8
2022-08-09T06:56:49.000Z,23.8
2022-08-09T06:57:59.000Z,23.8
2022-08-09T06:59:09.000Z,23.8
2022-08-09T07:00:19.000Z,23.8
2022-08-09T07:01:29.000Z,23.8
2022-08-09T07:02:39.000Z,23.8
2022-08-09T07:03:50.000Z,23.8
2022-08-09T07:05:00.000Z,23.8
2022-08-09T07:06:09.000Z,23.8
2022-08-09T07:07:18.000Z,23.8
2022-08-09T07:08:27.000Z,23.8
2022-08-09T07:09:37.000Z,23.8
2022-08-09T07:10:46.000Z,23.8
2022-08-09T07:11:55.000Z,23.8
2022-08-09T07:13:06.000Z,23.8
2022-08-09T07:14:15.000Z,23.8
2022-08-09T07:15:25.000Z,23.8
2022-08-09T07:16:35.000Z,23.8
2022-08-09T07:17:45.000Z,23.8
2022-08-09T07:18:55.000Z,23.8
2022-08-09T07:20:05.000Z,23.8
2022-08-09T07:21:15.000Z,23.8
2022-08-09T07:22:26.000Z,23.8
2022-08-09T07:23:36.000Z,23.8
2022-08-09T07:24:46.000Z,23.8
2022-08-09T07:25:56.000Z,23.8
2022-08-09T07:27:06.000Z,23.8
2022-08-09T07:28:16.000Z,23.8
2022-08-09T07:29:26.000Z,23.8
2022-08-09T07:30:35.000Z,23.8
2022-08-09T07:31:45.000Z,23.8
2022-08-09T07:32:56.000Z,23.9
2022-08-09T07:34:06.000Z,23.9
2022-08-09T07:35:16.000Z,23.8
2022-08-09T07:36:26.000Z,23.8
2022-08-09T07:37:36.000Z,23.8
2022-08-09T07:38:45.000Z,23.9
2022-08-09T07:39:55.000Z,23.9
2022-08-09T07:41:04.000Z,23.9
2022-08-09T07:42:14.000Z,23.9
2022-08-09T07:43:24.000Z,23.9
2022-08-09T07:44:34.000Z,23.9
2022-08-09T07:45:44.000Z,23.9
2022-08-09T07:46:54.000Z,23.9
2022-08-09T07:48:04.000Z,23.9
2022-08-09T07:49:14.000Z,23.9
2022-08-09T07:50:24.000Z,23.9
2022-08-09T07:51:35.000Z,23.9
2022-08-09T07:52:45.000Z,23.9
2022-08-09T07:53:55.000Z,23.9
2022-08-09T07:55:05.000Z,23.9
2022-08-09T07:56:15.000Z,23.9
2022-08-09T07:57:24.000Z,23.9
2022-08-09T07:58:34.000Z,23.9
2022-08-09T07:59:44.000Z,23.9
2022-08-09T08:00:54.000Z,23.9
2022-08-09T08:02:05.000Z,23.9
2022-08-09T08:03:15.000Z,23.9
2022-08-09T08:04:25.000Z,23.9
2022-08-09T08:05:34.000Z,23.9
2022-08-09T08:06:44.000Z,23.9
2022-08-09T08:07:53.000Z,23.9
2022-08-09T08:09:03.000Z,24
2022-08-09T08:10:12.000Z,24
2022-08-09T08:11:22.000Z,24
2022-08-09T08:12:32.000Z,24
2022-08-09T08:13:42.000Z,24
2022-08-09T08:14:52.000Z,24
2022-08-09T08:16:02.000Z,24
2022-08-09T08:17:12.000Z,24
2022-08-09T08:18:22.000Z,24
2022-08-09T08:19:32.000Z,24
2022-08-09T08:20:43.000Z,24
2022-08-09T08:21:53.000Z,24
2022-08-09T08:23:03.000Z,24
2022-08-09T08:24:13.000Z,24
2022-08-09T08:25:23.000Z,24
2022-08-09T08:26:32.000Z,24
2022-08-09T08:27:41.000Z,24
2022-08-09T08:28:51.000Z,24
2022-08-09T08:30:01.000Z,24
2022-08-09T08:31:12.000Z,24
2022-08-09T08:32:22.000Z,24
2022-08-09T08:33:32.000Z,24
2022-08-09T08:34:41.000Z,24
2022-08-09T08:35:50.000Z,24
2022-08-09T08:37:00.000Z,24
2022-08-09T08:38:09.000Z,24
2022-08-09T08:39:19.000Z,24
2022-08-09T08:40:29.000Z,24
2022-08-09T08:41:39.000Z,24.1
2022-08-09T08:42:49.000Z,24.1
2022-08-09T08:43:59.000Z,24.1
2022-08-09T08:45:09.000Z,24.1
2022-08-09T08:46:19.000Z,24.1
2022-08-09T08:47:29.000Z,24.1
2022-08-09T08:48:39.000Z,24.1
2022-08-09T08:49:50.000Z,24.1
2022-08-09T08:51:00.000Z,24.1
2022-08-09T08:52:10.000Z,24.1
2022-08-09T08:53:20.000Z,24.1
2022-08-09T08:54:29.000Z,24.1
2022-08-09T08:55:39.000Z,24.1
2022-08-09T08:56:49.000Z,24.1
2022-08-09T08:57:59.000Z,24.1
2022-08-09T08:59:09.000Z,24.1
2022-08-09T09:00:20.000Z,24.1
2022-08-09T09:01:30.000Z,24.1
2022-08-09T09:02:39.000Z,24.1
2022-08-09T09:03:48.000Z,24.1
2022-08-09T09:04:57.000Z,24.1
2022-08-09T09:06:06.000Z,24.1
2022-08-09T09:07:16.000Z,24.1
2022-08-09T09:08:27.000Z,24.1
2022-08-09T09:09:37.000Z,24.2
2022-08-09T09:10:47.000Z,24.2
2022-08-09T09:11:57.000Z,24.2
2022-08-09T09:13:07.000Z,24.2
2022-08-09T09:14:17.000Z,24.2
2022-08-09T09:15:27.000Z,24.2
2022-08-09T09:16:37.000Z,24.2
2022-08-09T09:17:47.000Z,24.2
2022-08-09T09:18:58.000Z,24.2
2022-08-09T09:20:08.000Z,24.2
2022-08-09T09:21:17.000Z,24.2
2022-08-09T09:22:27.000Z,24.2
2022-08-09T09:23:37.000Z,24.2
2022-08-09T09:24:47.000Z,24.2
2022-08-09T09:25:57.000Z,24.2
2022-08-09T09:27:07.000Z,24.2
2022-08-09T09:28:17.000Z,24.2
2022-08-09T09:29:27.000Z,24.3
2022-08-09T09:30:36.000Z,24.3
2022-08-09T09:31:45.000Z,24.3
2022-08-09T09:32:54.000Z,24.3
2022-08-09T09:34:04.000Z,24.3
2022-08-09T09:35:14.000Z,24.3
2022-08-09T09:36:24.000Z,24.3
2022-08-09T09:37:35.000Z,24.3
2022-08-09T09:38:45.000Z,24.3
2022-08-09T09:39:55.000Z,24.3
2022-08-09T09:41:05.000Z,24.3
2022-08-09T09:42:15.000Z,24.3
2022-08-09T09:43:25.000Z,24.3
2022-08-09T09:44:35.000Z,24.3
2022-08-09T09:45:45.000Z,24.3
2022-08-09T09:46:55.000Z,24.3
2022-08-09T09:48:05.000Z,24.4
2022-08-09T09:50:25.000Z,24.4
2022-08-09T09:51:35.000Z,24.4
2022-08-09T09:52:45.535Z,24.4
2022-08-09T09:53:55.000Z,24.4
2022-08-09T09:55:05.000Z,24.4
2022-08-09T09:56:15.000Z,24.4
2022-08-09T09:57:25.000Z,24.4
2022-08-09T09:58:34.000Z,24.4
2022-08-09T09:59:43.000Z,24.4
2022-08-09T10:00:52.000Z,24.4
2022-08-09T10:02:02.000Z,24.4
2022-08-09T10:03:12.000Z,24.4
2022-08-09T10:04:22.000Z,24.4
2022-08-09T10:05:32.000Z,24.4
2022-08-09T10:06:43.000Z,24.4
2022-08-09T10:07:53.000Z,24.4
2022-08-09T10:09:03.000Z,24.5
2022-08-09T10:10:13.000Z,24.5
2022-08-09T10:12:33.000Z,24.5
2022-08-09T10:13:43.000Z,24.5
2022-08-09T10:14:53.000Z,24.5
2022-08-09T10:16:02.000Z,24.5
2022-08-09T10:17:13.000Z,24.5
2022-08-09T10:18:23.000Z,24.5
2022-08-09T10:19:33.000Z,24.5
2022-08-09T10:20:43.000Z,24.5
2022-08-09T10:21:53.000Z,24.5
2022-08-09T10:23:03.000Z,24.5
2022-08-09T10:24:13.000Z,24.6
2022-08-09T10:25:23.000Z,24.6
2022-08-09T10:26:33.000Z,24.6
2022-08-09T10:27:42.000Z,24.6
2022-08-09T10:28:51.000Z,24.6
2022-08-09T10:30:00.000Z,24.6
2022-08-09T10:31:10.000Z,24.7
2022-08-09T10:32:20.000Z,24.7
2022-08-09T10:33:30.000Z,24.7
2022-08-09T10:34:40.000Z,24.7
2022-08-09T10:35:51.000Z,24.7
2022-08-09T10:37:01.000Z,24.7
2022-08-09T10:38:11.000Z,24.7
2022-08-09T10:40:31.000Z,24.8
2022-08-09T10:41:41.000Z,24.8
2022-08-09T10:42:51.000Z,24.8
2022-08-09T10:44:01.000Z,24.8
2022-08-09T10:45:10.000Z,24.8
2022-08-09T10:46:21.000Z,24.8
2022-08-09T10:47:31.000Z,24.8
2022-08-09T10:48:41.000Z,24.9
2022-08-09T10:49:51.000Z,24.9
2022-08-09T10:51:01.000Z,24.9
2022-08-09T10:52:11.000Z,24.9
2022-08-09T10:53:21.000Z,24.9
2022-08-09T10:54:30.000Z,24.9
2022-08-09T10:55:40.000Z,24.9
2022-08-09T10:56:49.000Z,24.9
2022-08-09T10:57:58.000Z,24.9
2022-08-09T10:59:08.000Z,24.9
2022-08-09T11:00:18.000Z,25
2022-08-09T11:01:28.000Z,25
2022-08-09T11:02:38.000Z,25
2022-08-09T11:03:48.000Z,25
2022-08-09T11:06:09.000Z,25
2022-08-09T11:07:19.000Z,25.1
2022-08-09T11:08:29.000Z,25.1
2022-08-09T11:09:39.000Z,25.1
2022-08-09T11:10:49.000Z,25.1
2022-08-09T11:11:59.000Z,25.1
2022-08-09T11:13:08.000Z,25.1
2022-08-09T11:14:18.000Z,25.2
2022-08-09T11:15:29.000Z,25.2
2022-08-09T11:16:39.000Z,25.2
2022-08-09T11:17:49.000Z,25.2
2022-08-09T11:18:59.000Z,25.2
2022-08-09T11:20:09.000Z,25.2
2022-08-09T11:21:19.000Z,25.2
2022-08-09T11:22:28.000Z,25.3
2022-08-09T11:23:37.000Z,25.3
2022-08-09T11:24:47.000Z,25.3
2022-08-09T11:25:56.000Z,25.3
2022-08-09T11:27:06.000Z,25.4
2022-08-09T11:28:16.000Z,25.4
2022-08-09T11:29:26.000Z,25.4
2022-08-09T11:30:36.000Z,25.4
2022-08-09T11:31:46.000Z,25.4
2022-08-09T11:34:07.000Z,25.5
2022-08-09T11:35:17.000Z,25.5
2022-08-09T11:36:27.000Z,25.5
2022-08-09T11:37:37.000Z,25.5
2022-08-09T11:38:47.000Z,25.6
2022-08-09T11:39:57.000Z,25.6
2022-08-09T11:41:06.000Z,25.6
2022-08-09T11:42:16.000Z,25.6
2022-08-09T11:43:26.000Z,25.7
2022-08-09T11:44:37.000Z,25.7
2022-08-09T11:45:47.000Z,25.7
2022-08-09T11:46:57.000Z,25.7
2022-08-09T11:48:07.000Z,25.7
2022-08-09T11:49:17.000Z,25.8
2022-08-09T11:50:26.000Z,25.8
2022-08-09T11:51:35.000Z,25.8
2022-08-09T11:52:44.000Z,25.8
2022-08-09T11:53:54.000Z,25.8
2022-08-09T11:55:04.000Z,25.9
2022-08-09T11:56:14.000Z,25.9
2022-08-09T11:57:24.000Z,25.9
2022-08-09T11:58:34.000Z,25.9
2022-08-09T11:59:44.000Z,26
2022-08-09T12:00:54.000Z,26
2022-08-09T12:02:04.000Z,26
2022-08-09T12:03:15.000Z,26.1
2022-08-09T12:04:25.000Z,26.1
2022-08-09T12:05:35.000Z,26.1
2022-08-09T12:06:45.000Z,26.2
2022-08-09T12:07:55.000Z,26.2
2022-08-09T12:09:04.000Z,26.2
2022-08-09T12:10:14.000Z,26.2
2022-08-09T12:11:24.000Z,26.3
2022-08-09T12:12:34.000Z,26.3
2022-08-09T12:13:45.000Z,26.3
2022-08-09T12:14:55.000Z,26.4
2022-08-09T12:16:05.000Z,26.4
2022-08-09T12:17:14.000Z,26.4
2022-08-09T12:18:23.000Z,26.5
2022-08-09T12:19:32.000Z,26.5
2022-08-09T12:20:42.000Z,26.5
2022-08-09T12:21:51.000Z,26.6
2022-08-09T12:24:12.000Z,26.6
2022-08-09T12:25:22.000Z,26.6
2022-08-09T12:27:42.000Z,26.7
2022-08-09T12:28:52.000Z,26.8
2022-08-09T12:30:02.000Z,26.8
2022-08-09T12:31:12.000Z,26.8
2022-08-09T12:32:23.000Z,26.9
2022-08-09T12:33:33.000Z,26.9
2022-08-09T12:34:43.000Z,26.9
2022-08-09T12:35:52.000Z,27
2022-08-09T12:37:01.000Z,27
2022-08-09T12:38:11.000Z,27.1
2022-08-09T12:39:21.000Z,27.1
2022-08-09T12:40:31.000Z,27.2
2022-08-09T12:41:42.000Z,27.2
2022-08-09T12:42:52.000Z,27.3
2022-08-09T12:44:02.000Z,27.3
2022-08-09T12:45:12.000Z,27.4
2022-08-09T12:46:22.000Z,27.5
2022-08-09T12:47:32.000Z,27.5
2022-08-09T12:48:42.000Z,27.6
2022-08-09T12:49:51.000Z,27.6
2022-08-09T12:51:01.000Z,27.7
2022-08-09T12:52:11.000Z,27.8
2022-08-09T12:53:21.000Z,27.9
2022-08-09T12:54:31.000Z,28
2022-08-09T12:55:41.000Z,28.2
2022-08-09T12:56:51.000Z,28.4
2022-08-09T12:58:01.000Z,28.5
2022-08-09T12:59:11.000Z,28.7
2022-08-09T13:00:21.000Z,28.9
2022-08-09T13:01:32.000Z,29.1
2022-08-09T13:02:42.000Z,29.3
2022-08-09T13:03:52.000Z,29.5
2022-08-09T13:05:02.000Z,29.7
2022-08-09T13:06:12.000Z,30
2022-08-09T13:07:21.000Z,30.2
2022-08-09T13:08:31.000Z,30.4
2022-08-09T13:09:41.000Z,30.6
2022-08-09T13:10:51.000Z,30.8
2022-08-09T13:12:02.000Z,30.9
2022-08-09T13:13:12.000Z,31.1
2022-08-09T13:14:22.000Z,31.3
2022-08-09T13:15:32.000Z,31.5
2022-08-09T13:16:42.000Z,31.6
2022-08-09T13:17:52.000Z,31.7
2022-08-09T13:19:02.000Z,31.8
2022-08-09T13:20:12.000Z,32
2022-08-09T13:21:23.000Z,32.1
2022-08-09T13:22:32.000Z,32.2
2022-08-09T13:23:41.000Z,32.3
2022-08-09T13:24:50.000Z,32.4
2022-08-09T13:26:00.000Z,32.4
2022-08-09T13:27:09.000Z,32.5
2022-08-09T13:28:18.000Z,32.6
2022-08-09T13:29:28.000Z,32.7
2022-08-09T13:30:39.000Z,32.8
2022-08-09T13:31:49.000Z,32.8
2022-08-09T13:32:59.000Z,32.9
2022-08-09T13:34:09.000Z,32.9
2022-08-09T13:35:19.000Z,33
2022-08-09T13:36:29.000Z,33
2022-08-09T13:37:39.000Z,33.1
2022-08-09T13:38:49.000Z,33.1
2022-08-09T13:40:00.000Z,33.2
2022-08-09T13:41:10.000Z,33.3
2022-08-09T13:42:20.000Z,33.3
2022-08-09T13:43:29.000Z,33.4
2022-08-09T13:44:39.000Z,33.4
2022-08-09T13:45:49.000Z,33.5
2022-08-09T13:46:59.000Z,33.5
2022-08-09T13:48:09.000Z,33.5
2022-08-09T13:49:19.000Z,33.6
2022-08-09T13:50:30.000Z,33.6
2022-08-09T13:51:39.000Z,33.6
2022-08-09T13:52:48.000Z,33.7
2022-08-09T13:53:57.000Z,33.8
2022-08-09T13:55:06.000Z,33.8
2022-08-09T13:56:16.000Z,33.9
2022-08-09T13:57:26.000Z,33.9
2022-08-09T13:58:36.000Z,34
2022-08-09T13:59:47.000Z,34.1
2022-08-09T14:00:57.000Z,34.1
2022-08-09T14:02:07.000Z,34.1
2022-08-09T14:03:17.000Z,34.1
2022-08-09T14:04:27.000Z,34.1
2022-08-09T14:05:37.000Z,34.1
2022-08-09T14:06:47.000Z,34.1
2022-08-09T14:07:57.000Z,34.1
2022-08-09T14:09:08.000Z,34.1
2022-08-09T14:10:17.000Z,34.1
2022-08-09T14:11:27.000Z,34.1
2022-08-09T14:12:37.000Z,34.1
2022-08-09T14:13:47.000Z,34.1
2022-08-09T14:14:57.000Z,34.2
2022-08-09T14:16:07.000Z,34.2
2022-08-09T14:17:17.000Z,34.3
2022-08-09T14:18:27.000Z,34.3
2022-08-09T14:19:36.000Z,34.3
2022-08-09T14:20:46.000Z,34.3
2022-08-09T14:21:55.000Z,34.3
2022-08-09T14:23:04.000Z,34.4
2022-08-09T14:24:14.000Z,34.4
2022-08-09T14:25:24.000Z,34.4
2022-08-09T14:26:34.000Z,34.4
2022-08-09T14:27:45.000Z,34.5
2022-08-09T14:28:55.000Z,34.5
2022-08-09T14:30:05.000Z,34.6
2022-08-09T14:31:15.000Z,34.6
2022-08-09T14:32:25.000Z,34.6
2022-08-09T14:33:35.000Z,34.6
2022-08-09T14:34:45.000Z,34.6
2022-08-09T14:35:55.000Z,34.6
2022-08-09T14:37:05.000Z,34.7
2022-08-09T14:38:15.000Z,34.7
2022-08-09T14:39:25.000Z,34.7
2022-08-09T14:40:35.000Z,34.7
2022-08-09T14:41:45.000Z,34.8
2022-08-09T14:42:55.000Z,34.8
2022-08-09T14:44:05.000Z,34.8
2022-08-09T14:45:15.000Z,34.9
2022-08-09T14:46:24.000Z,34.8
2022-08-09T14:47:34.000Z,34.8
2022-08-09T14:48:43.000Z,34.9
2022-08-09T14:49:52.000Z,34.9
2022-08-09T14:51:02.000Z,34.9
2022-08-09T14:52:12.000Z,35
2022-08-09T14:53:22.000Z,35.1
2022-08-09T14:54:32.000Z,35.1
2022-08-09T14:55:42.000Z,35.2
2022-08-09T14:56:53.000Z,35.3
2022-08-09T14:58:03.000Z,35.3
2022-08-09T14:59:13.000Z,35.3
2022-08-09T15:00:23.000Z,35.4
2022-08-09T15:01:33.000Z,35.4
2022-08-09T15:02:43.000Z,35.4
2022-08-09T15:03:53.000Z,35.4
2022-08-09T15:05:02.000Z,35.4
2022-08-09T15:06:12.000Z,35.4
2022-08-09T15:07:23.000Z,35.4
2022-08-09T15:08:33.000Z,35.4
2022-08-09T15:09:43.000Z,35.5
2022-08-09T15:10:53.000Z,35.5
2022-08-09T15:12:03.000Z,35.5
2022-08-09T15:13:12.000Z,35.5
2022-08-09T15:14:21.000Z,35.5
2022-08-09T15:15:30.000Z,35.6
2022-08-09T15:16:40.000Z,35.6
2022-08-09T15:17:50.000Z,35.7
2022-08-09T15:19:00.000Z,35.6
2022-08-09T15:20:10.000Z,35.6
2022-08-09T15:21:20.000Z,35.5
2022-08-09T15:22:30.000Z,35.6
2022-08-09T15:23:40.000Z,35.6
2022-08-09T15:24:50.000Z,35.7
2022-08-09T15:26:01.000Z,35.7
2022-08-09T15:27:11.000Z,35.7
2022-08-09T15:28:21.000Z,35.7
2022-08-09T15:29:31.000Z,35.7
2022-08-09T15:30:41.000Z,35.7
2022-08-09T15:31:50.000Z,35.7
2022-08-09T15:33:00.000Z,35.7
2022-08-09T15:34:10.000Z,35.7
2022-08-09T15:35:21.000Z,35.7
2022-08-09T15:36:31.000Z,35.7
2022-08-09T15:37:41.000Z,35.7
2022-08-09T15:38:51.000Z,35.6
2022-08-09T15:40:00.000Z,35.6
2022-08-09T15:41:09.000Z,35.6
2022-08-09T15:42:19.000Z,35.6
2022-08-09T15:43:28.000Z,35.6
2022-08-09T15:44:38.000Z,35.6
2022-08-09T15:45:48.000Z,35.6
2022-08-09T15:46:58.000Z,35.5
2022-08-09T15:48:08.000Z,35.5
2022-08-09T15:49:18.000Z,35.5
2022-08-09T15:50:28.000Z,35.5
2022-08-09T15:51:38.000Z,35.5
2022-08-09T15:52:48.000Z,35.5